sensor_id;sensor_type;location;lat;lon;timestamp;P1;durP1;ratioP1;P2;durP2;ratioP2
64816;SDS011;69411;45.656;11.740;2024-03-08T00:00:05;11.95;;;6.85;;
64816;SDS011;69411;45.656;11.740;2024-03-08T00:02:36;13.18;;;6.90;;
64816;SDS011;69411;45.656;11.740;2024-03-08T00:05:03;13.27;;;6.68;;
64816;SDS011;69411;45.656;11.740;2024-03-08T00:07:30;12.48;;;6.88;;
64816;SDS011;69411;45.656;11.740;2024-03-08T00:09:56;15.27;;;6.72;;
64816;SDS011;69411;45.656;11.740;2024-03-08T00:12:23;13.13;;;6.45;;
64816;SDS011;69411;45.656;11.740;2024-03-08T00:14:51;14.48;;;6.82;;
64816;SDS011;69411;45.656;11.740;2024-03-08T00:17:17;12.77;;;6.68;;
64816;SDS011;69411;45.656;11.740;2024-03-08T00:19:43;11.88;;;6.63;;
64816;SDS011;69411;45.656;11.740;2024-03-08T00:22:09;12.95;;;6.22;;
64816;SDS011;69411;45.656;11.740;2024-03-08T00:24:36;11.20;;;6.40;;
64816;SDS011;69411;45.656;11.740;2024-03-08T00:27:02;11.90;;;6.70;;
64816;SDS011;69411;45.656;11.740;2024-03-08T00:29:30;14.75;;;6.82;;
64816;SDS011;69411;45.656;11.740;2024-03-08T00:31:56;12.98;;;6.50;;
64816;SDS011;69411;45.656;11.740;2024-03-08T00:34:23;12.82;;;7.05;;
64816;SDS011;69411;45.656;11.740;2024-03-08T00:36:49;11.48;;;6.30;;
64816;SDS011;69411;45.656;11.740;2024-03-08T00:39:17;11.57;;;5.63;;
64816;SDS011;69411;45.656;11.740;2024-03-08T00:41:46;11.25;;;6.03;;
64816;SDS011;69411;45.656;11.740;2024-03-08T00:44:12;11.23;;;6.22;;
64816;SDS011;69411;45.656;11.740;2024-03-08T00:46:38;12.40;;;6.38;;
64816;SDS011;69411;45.656;11.740;2024-03-08T00:49:04;11.35;;;6.10;;
64816;SDS011;69411;45.656;11.740;2024-03-08T00:51:31;11.70;;;6.57;;
64816;SDS011;69411;45.656;11.740;2024-03-08T00:53:57;12.50;;;6.88;;
64816;SDS011;69411;45.656;11.740;2024-03-08T00:56:23;12.30;;;6.63;;
64816;SDS011;69411;45.656;11.740;2024-03-08T00:58:50;12.32;;;6.88;;
64816;SDS011;69411;45.656;11.740;2024-03-08T01:01:18;13.27;;;6.72;;
64816;SDS011;69411;45.656;11.740;2024-03-08T01:03:44;11.23;;;6.38;;
64816;SDS011;69411;45.656;11.740;2024-03-08T01:06:10;12.25;;;6.75;;
64816;SDS011;69411;45.656;11.740;2024-03-08T01:08:37;11.88;;;6.50;;
64816;SDS011;69411;45.656;11.740;2024-03-08T01:11:07;11.43;;;6.50;;
64816;SDS011;69411;45.656;11.740;2024-03-08T01:13:36;12.23;;;7.03;;
64816;SDS011;69411;45.656;11.740;2024-03-08T01:16:02;11.90;;;6.93;;
64816;SDS011;69411;45.656;11.740;2024-03-08T01:18:29;11.77;;;6.60;;
64816;SDS011;69411;45.656;11.740;2024-03-08T01:20:55;12.02;;;6.60;;
64816;SDS011;69411;45.656;11.740;2024-03-08T01:23:21;11.68;;;6.75;;
64816;SDS011;69411;45.656;11.740;2024-03-08T01:25:47;13.38;;;6.20;;
64816;SDS011;69411;45.656;11.740;2024-03-08T01:28:17;11.85;;;6.00;;
64816;SDS011;69411;45.656;11.740;2024-03-08T01:30:43;12.65;;;6.20;;
64816;SDS011;69411;45.656;11.740;2024-03-08T01:33:10;13.13;;;6.47;;
64816;SDS011;69411;45.656;11.740;2024-03-08T01:35:36;11.80;;;6.10;;
64816;SDS011;69411;45.656;11.740;2024-03-08T01:38:02;10.95;;;5.32;;
64816;SDS011;69411;45.656;11.740;2024-03-08T01:40:30;12.27;;;5.72;;
64816;SDS011;69411;45.656;11.740;2024-03-08T01:42:56;12.30;;;5.75;;
64816;SDS011;69411;45.656;11.740;2024-03-08T01:45:22;11.90;;;5.90;;
64816;SDS011;69411;45.656;11.740;2024-03-08T01:47:47;11.15;;;5.60;;
64816;SDS011;69411;45.656;11.740;2024-03-08T01:50:14;11.88;;;5.85;;
64816;SDS011;69411;45.656;11.740;2024-03-08T01:52:41;10.25;;;5.38;;
64816;SDS011;69411;45.656;11.740;2024-03-08T01:55:08;10.85;;;5.65;;
64816;SDS011;69411;45.656;11.740;2024-03-08T01:57:34;11.23;;;5.70;;
64816;SDS011;69411;45.656;11.740;2024-03-08T02:00:02;12.45;;;5.78;;
64816;SDS011;69411;45.656;11.740;2024-03-08T02:02:32;11.38;;;5.80;;
64816;SDS011;69411;45.656;11.740;2024-03-08T02:05:02;11.90;;;6.03;;
64816;SDS011;69411;45.656;11.740;2024-03-08T02:07:30;9.90;;;5.68;;
64816;SDS011;69411;45.656;11.740;2024-03-08T02:09:56;10.73;;;5.85;;
64816;SDS011;69411;45.656;11.740;2024-03-08T02:12:23;13.85;;;6.03;;
64816;SDS011;69411;45.656;11.740;2024-03-08T02:14:49;10.93;;;5.28;;
64816;SDS011;69411;45.656;11.740;2024-03-08T02:17:15;9.27;;;5.13;;
64816;SDS011;69411;45.656;11.740;2024-03-08T02:19:40;12.63;;;5.78;;
64816;SDS011;69411;45.656;11.740;2024-03-08T02:22:07;10.70;;;5.63;;
64816;SDS011;69411;45.656;11.740;2024-03-08T02:24:34;9.70;;;5.10;;
64816;SDS011;69411;45.656;11.740;2024-03-08T02:27:00;9.48;;;5.00;;
64816;SDS011;69411;45.656;11.740;2024-03-08T02:29:26;10.32;;;5.07;;
64816;SDS011;69411;45.656;11.740;2024-03-08T02:31:52;10.13;;;5.18;;
64816;SDS011;69411;45.656;11.740;2024-03-08T02:34:18;10.40;;;5.40;;
64816;SDS011;69411;45.656;11.740;2024-03-08T02:36:44;10.93;;;5.43;;
64816;SDS011;69411;45.656;11.740;2024-03-08T02:39:10;9.93;;;5.45;;
64816;SDS011;69411;45.656;11.740;2024-03-08T02:41:36;8.82;;;4.93;;
64816;SDS011;69411;45.656;11.740;2024-03-08T02:44:02;11.25;;;5.18;;
64816;SDS011;69411;45.656;11.740;2024-03-08T02:46:29;10.57;;;5.57;;
64816;SDS011;69411;45.656;11.740;2024-03-08T02:48:55;10.13;;;5.20;;
64816;SDS011;69411;45.656;11.740;2024-03-08T02:51:22;9.90;;;5.10;;
64816;SDS011;69411;45.656;11.740;2024-03-08T02:53:47;10.70;;;5.50;;
64816;SDS011;69411;45.656;11.740;2024-03-08T02:56:17;9.57;;;4.90;;
64816;SDS011;69411;45.656;11.740;2024-03-08T02:58:43;11.90;;;5.47;;
64816;SDS011;69411;45.656;11.740;2024-03-08T03:01:14;9.88;;;5.15;;
64816;SDS011;69411;45.656;11.740;2024-03-08T03:03:41;9.90;;;5.15;;
64816;SDS011;69411;45.656;11.740;2024-03-08T03:06:07;9.52;;;4.82;;
64816;SDS011;69411;45.656;11.740;2024-03-08T03:08:33;9.82;;;5.30;;
64816;SDS011;69411;45.656;11.740;2024-03-08T03:10:59;9.57;;;5.50;;
64816;SDS011;69411;45.656;11.740;2024-03-08T03:13:25;9.70;;;4.95;;
64816;SDS011;69411;45.656;11.740;2024-03-08T03:15:51;10.70;;;5.70;;
64816;SDS011;69411;45.656;11.740;2024-03-08T03:18:17;10.90;;;5.38;;
64816;SDS011;69411;45.656;11.740;2024-03-08T03:20:46;9.43;;;4.97;;
64816;SDS011;69411;45.656;11.740;2024-03-08T03:23:13;8.23;;;4.72;;
64816;SDS011;69411;45.656;11.740;2024-03-08T03:25:39;9.73;;;5.15;;
64816;SDS011;69411;45.656;11.740;2024-03-08T03:28:06;10.40;;;5.20;;
64816;SDS011;69411;45.656;11.740;2024-03-08T03:30:33;9.90;;;5.18;;
64816;SDS011;69411;45.656;11.740;2024-03-08T03:32:59;9.95;;;4.85;;
64816;SDS011;69411;45.656;11.740;2024-03-08T03:35:26;8.93;;;5.20;;
64816;SDS011;69411;45.656;11.740;2024-03-08T03:37:53;8.90;;;4.95;;
64816;SDS011;69411;45.656;11.740;2024-03-08T03:40:31;9.40;;;4.88;;
64816;SDS011;69411;45.656;11.740;2024-03-08T03:42:57;11.32;;;6.03;;
64816;SDS011;69411;45.656;11.740;2024-03-08T03:45:23;9.07;;;4.88;;
64816;SDS011;69411;45.656;11.740;2024-03-08T03:47:50;8.25;;;4.93;;
64816;SDS011;69411;45.656;11.740;2024-03-08T03:50:17;8.05;;;4.63;;
64816;SDS011;69411;45.656;11.740;2024-03-08T03:52:45;9.95;;;4.90;;
64816;SDS011;69411;45.656;11.740;2024-03-08T03:55:11;9.20;;;5.00;;
64816;SDS011;69411;45.656;11.740;2024-03-08T03:57:38;8.02;;;4.45;;
64816;SDS011;69411;45.656;11.740;2024-03-08T04:00:05;8.00;;;4.25;;
64816;SDS011;69411;45.656;11.740;2024-03-08T04:02:38;8.55;;;4.53;;
64816;SDS011;69411;45.656;11.740;2024-03-08T04:05:05;7.15;;;4.28;;
64816;SDS011;69411;45.656;11.740;2024-03-08T04:07:32;6.53;;;3.67;;
64816;SDS011;69411;45.656;11.740;2024-03-08T04:09:59;6.32;;;3.70;;
64816;SDS011;69411;45.656;11.740;2024-03-08T04:12:29;7.85;;;3.90;;
64816;SDS011;69411;45.656;11.740;2024-03-08T04:14:55;6.03;;;3.47;;
64816;SDS011;69411;45.656;11.740;2024-03-08T04:17:21;6.35;;;3.50;;
64816;SDS011;69411;45.656;11.740;2024-03-08T04:19:49;6.25;;;3.55;;
64816;SDS011;69411;45.656;11.740;2024-03-08T04:22:15;7.85;;;3.80;;
64816;SDS011;69411;45.656;11.740;2024-03-08T04:24:43;7.10;;;3.60;;
64816;SDS011;69411;45.656;11.740;2024-03-08T04:27:10;6.00;;;3.22;;
64816;SDS011;69411;45.656;11.740;2024-03-08T04:29:36;4.78;;;3.05;;
64816;SDS011;69411;45.656;11.740;2024-03-08T04:32:03;5.18;;;3.17;;
64816;SDS011;69411;45.656;11.740;2024-03-08T04:34:30;6.10;;;3.47;;
64816;SDS011;69411;45.656;11.740;2024-03-08T04:36:59;4.72;;;2.97;;
64816;SDS011;69411;45.656;11.740;2024-03-08T04:39:25;6.28;;;3.10;;
64816;SDS011;69411;45.656;11.740;2024-03-08T04:41:53;5.70;;;3.58;;
64816;SDS011;69411;45.656;11.740;2024-03-08T04:44:22;5.38;;;3.38;;
64816;SDS011;69411;45.656;11.740;2024-03-08T04:46:50;5.30;;;3.20;;
64816;SDS011;69411;45.656;11.740;2024-03-08T04:49:16;6.22;;;3.22;;
64816;SDS011;69411;45.656;11.740;2024-03-08T04:51:42;5.60;;;3.40;;
64816;SDS011;69411;45.656;11.740;2024-03-08T04:54:10;6.47;;;3.65;;
64816;SDS011;69411;45.656;11.740;2024-03-08T04:56:36;5.85;;;3.80;;
64816;SDS011;69411;45.656;11.740;2024-03-08T04:59:02;7.70;;;3.45;;
64816;SDS011;69411;45.656;11.740;2024-03-08T05:01:28;6.15;;;3.55;;
64816;SDS011;69411;45.656;11.740;2024-03-08T05:03:54;6.68;;;3.63;;
64816;SDS011;69411;45.656;11.740;2024-03-08T05:06:20;6.75;;;3.83;;
64816;SDS011;69411;45.656;11.740;2024-03-08T05:08:46;7.93;;;4.05;;
64816;SDS011;69411;45.656;11.740;2024-03-08T05:11:12;7.90;;;4.20;;
64816;SDS011;69411;45.656;11.740;2024-03-08T05:13:40;8.65;;;4.38;;
64816;SDS011;69411;45.656;11.740;2024-03-08T05:16:06;8.02;;;3.95;;
64816;SDS011;69411;45.656;11.740;2024-03-08T05:18:33;8.15;;;4.25;;
64816;SDS011;69411;45.656;11.740;2024-03-08T05:20:59;9.35;;;4.53;;
64816;SDS011;69411;45.656;11.740;2024-03-08T05:23:25;7.80;;;4.47;;
64816;SDS011;69411;45.656;11.740;2024-03-08T05:25:51;8.85;;;4.88;;
64816;SDS011;69411;45.656;11.740;2024-03-08T05:28:17;9.52;;;5.28;;
64816;SDS011;69411;45.656;11.740;2024-03-08T05:30:43;8.63;;;4.50;;
64816;SDS011;69411;45.656;11.740;2024-03-08T05:33:09;8.88;;;4.95;;
64816;SDS011;69411;45.656;11.740;2024-03-08T05:35:36;9.82;;;5.55;;
64816;SDS011;69411;45.656;11.740;2024-03-08T05:38:02;8.57;;;4.80;;
64816;SDS011;69411;45.656;11.740;2024-03-08T05:40:28;9.57;;;5.15;;
64816;SDS011;69411;45.656;11.740;2024-03-08T05:42:59;8.18;;;5.00;;
64816;SDS011;69411;45.656;11.740;2024-03-08T05:45:26;8.75;;;4.95;;
64816;SDS011;69411;45.656;11.740;2024-03-08T05:47:52;10.57;;;5.05;;
64816;SDS011;69411;45.656;11.740;2024-03-08T05:50:18;9.77;;;5.38;;
64816;SDS011;69411;45.656;11.740;2024-03-08T05:52:44;9.80;;;4.95;;
64816;SDS011;69411;45.656;11.740;2024-03-08T05:55:12;9.75;;;4.97;;
64816;SDS011;69411;45.656;11.740;2024-03-08T05:57:42;9.20;;;4.80;;
64816;SDS011;69411;45.656;11.740;2024-03-08T06:00:09;9.65;;;5.38;;
64816;SDS011;69411;45.656;11.740;2024-03-08T06:02:40;10.50;;;5.35;;
64816;SDS011;69411;45.656;11.740;2024-03-08T06:05:10;10.65;;;5.18;;
64816;SDS011;69411;45.656;11.740;2024-03-08T06:07:36;8.02;;;4.80;;
64816;SDS011;69411;45.656;11.740;2024-03-08T06:10:07;8.40;;;4.82;;
64816;SDS011;69411;45.656;11.740;2024-03-08T06:12:35;11.82;;;4.93;;
64816;SDS011;69411;45.656;11.740;2024-03-08T06:15:08;8.05;;;4.68;;
64816;SDS011;69411;45.656;11.740;2024-03-08T06:17:35;10.45;;;5.10;;
64816;SDS011;69411;45.656;11.740;2024-03-08T06:20:02;8.88;;;4.75;;
64816;SDS011;69411;45.656;11.740;2024-03-08T06:22:29;9.43;;;5.22;;
64816;SDS011;69411;45.656;11.740;2024-03-08T06:24:55;9.55;;;4.72;;
64816;SDS011;69411;45.656;11.740;2024-03-08T06:27:22;10.05;;;5.30;;
64816;SDS011;69411;45.656;11.740;2024-03-08T06:29:48;8.52;;;4.68;;
64816;SDS011;69411;45.656;11.740;2024-03-08T06:32:14;7.70;;;4.68;;
64816;SDS011;69411;45.656;11.740;2024-03-08T06:34:41;10.82;;;5.38;;
64816;SDS011;69411;45.656;11.740;2024-03-08T06:37:07;9.43;;;4.90;;
64816;SDS011;69411;45.656;11.740;2024-03-08T06:39:33;12.10;;;5.75;;
64816;SDS011;69411;45.656;11.740;2024-03-08T06:42:00;10.02;;;5.03;;
64816;SDS011;69411;45.656;11.740;2024-03-08T06:44:26;9.15;;;4.95;;
64816;SDS011;69411;45.656;11.740;2024-03-08T06:46:52;9.10;;;5.20;;
64816;SDS011;69411;45.656;11.740;2024-03-08T06:49:18;9.35;;;4.88;;
64816;SDS011;69411;45.656;11.740;2024-03-08T06:51:44;9.63;;;5.00;;
64816;SDS011;69411;45.656;11.740;2024-03-08T06:54:10;9.38;;;5.00;;
64816;SDS011;69411;45.656;11.740;2024-03-08T06:56:36;10.27;;;5.30;;
64816;SDS011;69411;45.656;11.740;2024-03-08T06:59:02;9.27;;;5.25;;
64816;SDS011;69411;45.656;11.740;2024-03-08T07:01:31;9.65;;;5.32;;
64816;SDS011;69411;45.656;11.740;2024-03-08T07:03:59;12.52;;;5.72;;
64816;SDS011;69411;45.656;11.740;2024-03-08T07:06:30;10.07;;;5.18;;
64816;SDS011;69411;45.656;11.740;2024-03-08T07:08:58;16.80;;;6.50;;
64816;SDS011;69411;45.656;11.740;2024-03-08T07:11:27;11.25;;;6.82;;
64816;SDS011;69411;45.656;11.740;2024-03-08T07:13:53;12.15;;;6.65;;
64816;SDS011;69411;45.656;11.740;2024-03-08T07:16:19;12.93;;;7.43;;
64816;SDS011;69411;45.656;11.740;2024-03-08T07:18:46;12.27;;;6.90;;
64816;SDS011;69411;45.656;11.740;2024-03-08T07:21:12;12.90;;;7.05;;
64816;SDS011;69411;45.656;11.740;2024-03-08T07:26:07;9.68;;;5.80;;
64816;SDS011;69411;45.656;11.740;2024-03-08T07:28:34;10.95;;;6.07;;
64816;SDS011;69411;45.656;11.740;2024-03-08T07:31:00;9.68;;;5.63;;
64816;SDS011;69411;45.656;11.740;2024-03-08T07:33:38;10.27;;;5.80;;
64816;SDS011;69411;45.656;11.740;2024-03-08T07:36:04;8.95;;;5.25;;
64816;SDS011;69411;45.656;11.740;2024-03-08T07:38:30;8.60;;;5.40;;
64816;SDS011;69411;45.656;11.740;2024-03-08T07:40:56;10.35;;;5.50;;
64816;SDS011;69411;45.656;11.740;2024-03-08T07:43:22;10.15;;;5.70;;
64816;SDS011;69411;45.656;11.740;2024-03-08T07:45:48;10.68;;;5.80;;
64816;SDS011;69411;45.656;11.740;2024-03-08T07:48:14;12.25;;;5.70;;
64816;SDS011;69411;45.656;11.740;2024-03-08T07:50:41;9.32;;;5.88;;
64816;SDS011;69411;45.656;11.740;2024-03-08T07:53:07;9.88;;;5.80;;
64816;SDS011;69411;45.656;11.740;2024-03-08T07:55:34;9.30;;;5.50;;
64816;SDS011;69411;45.656;11.740;2024-03-08T07:58:03;11.95;;;5.53;;
64816;SDS011;69411;45.656;11.740;2024-03-08T08:00:29;10.32;;;5.63;;
64816;SDS011;69411;45.656;11.740;2024-03-08T08:02:56;8.45;;;5.03;;
64816;SDS011;69411;45.656;11.740;2024-03-08T08:05:22;9.80;;;5.50;;
64816;SDS011;69411;45.656;11.740;2024-03-08T08:07:48;11.90;;;6.20;;
64816;SDS011;69411;45.656;11.740;2024-03-08T08:10:15;9.57;;;5.20;;
64816;SDS011;69411;45.656;11.740;2024-03-08T08:12:47;9.85;;;5.72;;
64816;SDS011;69411;45.656;11.740;2024-03-08T08:15:13;10.57;;;5.78;;
64816;SDS011;69411;45.656;11.740;2024-03-08T08:17:46;11.10;;;5.82;;
64816;SDS011;69411;45.656;11.740;2024-03-08T08:20:12;9.30;;;5.32;;
64816;SDS011;69411;45.656;11.740;2024-03-08T08:22:39;9.55;;;5.35;;
64816;SDS011;69411;45.656;11.740;2024-03-08T08:25:06;9.13;;;5.20;;
64816;SDS011;69411;45.656;11.740;2024-03-08T08:27:33;10.73;;;5.22;;
64816;SDS011;69411;45.656;11.740;2024-03-08T08:29:59;8.18;;;4.97;;
64816;SDS011;69411;45.656;11.740;2024-03-08T08:32:25;10.88;;;5.20;;
64816;SDS011;69411;45.656;11.740;2024-03-08T08:34:51;11.70;;;5.90;;
64816;SDS011;69411;45.656;11.740;2024-03-08T08:37:18;10.23;;;5.30;;
64816;SDS011;69411;45.656;11.740;2024-03-08T08:39:44;10.68;;;5.70;;
64816;SDS011;69411;45.656;11.740;2024-03-08T08:42:10;8.57;;;5.28;;
64816;SDS011;69411;45.656;11.740;2024-03-08T08:44:36;10.23;;;5.65;;
64816;SDS011;69411;45.656;11.740;2024-03-08T08:47:02;9.45;;;5.38;;
64816;SDS011;69411;45.656;11.740;2024-03-08T08:49:30;8.95;;;5.53;;
64816;SDS011;69411;45.656;11.740;2024-03-08T08:51:57;9.57;;;5.03;;
64816;SDS011;69411;45.656;11.740;2024-03-08T08:54:26;11.07;;;5.43;;
64816;SDS011;69411;45.656;11.740;2024-03-08T08:56:53;9.43;;;5.30;;
64816;SDS011;69411;45.656;11.740;2024-03-08T08:59:19;8.90;;;5.32;;
64816;SDS011;69411;45.656;11.740;2024-03-08T09:01:45;12.48;;;5.53;;
64816;SDS011;69411;45.656;11.740;2024-03-08T09:04:15;9.73;;;5.55;;
64816;SDS011;69411;45.656;11.740;2024-03-08T09:06:41;9.23;;;5.07;;
64816;SDS011;69411;45.656;11.740;2024-03-08T09:09:07;10.90;;;5.72;;
64816;SDS011;69411;45.656;11.740;2024-03-08T09:11:34;11.20;;;5.95;;
64816;SDS011;69411;45.656;11.740;2024-03-08T09:14:00;9.80;;;5.28;;
64816;SDS011;69411;45.656;11.740;2024-03-08T09:16:27;11.23;;;6.05;;
64816;SDS011;69411;45.656;11.740;2024-03-08T09:18:53;8.93;;;5.43;;
64816;SDS011;69411;45.656;11.740;2024-03-08T09:21:19;9.77;;;5.60;;
64816;SDS011;69411;45.656;11.740;2024-03-08T09:23:45;9.73;;;5.70;;
64816;SDS011;69411;45.656;11.740;2024-03-08T09:26:11;10.90;;;5.30;;
64816;SDS011;69411;45.656;11.740;2024-03-08T09:28:38;10.27;;;5.50;;
64816;SDS011;69411;45.656;11.740;2024-03-08T09:31:04;9.85;;;5.50;;
64816;SDS011;69411;45.656;11.740;2024-03-08T09:33:30;12.65;;;6.65;;
64816;SDS011;69411;45.656;11.740;2024-03-08T09:35:56;12.13;;;5.97;;
64816;SDS011;69411;45.656;11.740;2024-03-08T09:38:23;11.70;;;6.10;;
64816;SDS011;69411;45.656;11.740;2024-03-08T09:40:51;11.57;;;5.88;;
64816;SDS011;69411;45.656;11.740;2024-03-08T09:43:18;11.27;;;6.35;;
64816;SDS011;69411;45.656;11.740;2024-03-08T09:45:45;10.35;;;5.85;;
64816;SDS011;69411;45.656;11.740;2024-03-08T09:48:14;15.52;;;9.23;;
64816;SDS011;69411;45.656;11.740;2024-03-08T09:50:44;10.73;;;6.03;;
64816;SDS011;69411;45.656;11.740;2024-03-08T09:53:12;10.82;;;6.38;;
64816;SDS011;69411;45.656;11.740;2024-03-08T09:55:39;11.82;;;6.85;;
64816;SDS011;69411;45.656;11.740;2024-03-08T09:58:11;11.48;;;6.65;;
64816;SDS011;69411;45.656;11.740;2024-03-08T10:00:53;14.10;;;6.93;;
64816;SDS011;69411;45.656;11.740;2024-03-08T10:03:22;13.85;;;6.90;;
64816;SDS011;69411;45.656;11.740;2024-03-08T10:05:48;11.35;;;6.65;;
64816;SDS011;69411;45.656;11.740;2024-03-08T10:08:15;14.90;;;7.72;;
64816;SDS011;69411;45.656;11.740;2024-03-08T10:10:41;14.57;;;7.80;;
64816;SDS011;69411;45.656;11.740;2024-03-08T10:13:08;12.63;;;7.15;;
64816;SDS011;69411;45.656;11.740;2024-03-08T10:15:36;12.35;;;7.15;;
64816;SDS011;69411;45.656;11.740;2024-03-08T10:18:04;12.38;;;7.65;;
64816;SDS011;69411;45.656;11.740;2024-03-08T10:20:33;14.63;;;7.53;;
64816;SDS011;69411;45.656;11.740;2024-03-08T10:23:02;12.27;;;7.13;;
64816;SDS011;69411;45.656;11.740;2024-03-08T10:25:30;11.73;;;6.82;;
64816;SDS011;69411;45.656;11.740;2024-03-08T10:28:00;13.77;;;7.53;;
64816;SDS011;69411;45.656;11.740;2024-03-08T10:30:29;12.57;;;7.40;;
64816;SDS011;69411;45.656;11.740;2024-03-08T10:32:55;13.55;;;7.57;;
64816;SDS011;69411;45.656;11.740;2024-03-08T10:35:21;13.88;;;7.22;;
64816;SDS011;69411;45.656;11.740;2024-03-08T10:37:49;15.35;;;8.00;;
64816;SDS011;69411;45.656;11.740;2024-03-08T10:40:28;14.23;;;7.97;;
64816;SDS011;69411;45.656;11.740;2024-03-08T10:42:55;14.10;;;7.90;;
64816;SDS011;69411;45.656;11.740;2024-03-08T10:48:02;14.32;;;7.15;;
64816;SDS011;69411;45.656;11.740;2024-03-08T10:50:48;14.70;;;8.23;;
64816;SDS011;69411;45.656;11.740;2024-03-08T10:53:17;13.63;;;7.43;;
64816;SDS011;69411;45.656;11.740;2024-03-08T10:55:46;15.18;;;7.68;;
64816;SDS011;69411;45.656;11.740;2024-03-08T10:58:13;12.90;;;6.90;;
64816;SDS011;69411;45.656;11.740;2024-03-08T11:00:40;16.70;;;8.93;;
64816;SDS011;69411;45.656;11.740;2024-03-08T11:03:06;15.73;;;8.23;;
64816;SDS011;69411;45.656;11.740;2024-03-08T11:05:39;13.00;;;7.35;;
64816;SDS011;69411;45.656;11.740;2024-03-08T11:10:50;14.75;;;8.00;;
64816;SDS011;69411;45.656;11.740;2024-03-08T11:13:34;15.80;;;8.23;;
64816;SDS011;69411;45.656;11.740;2024-03-08T11:16:50;14.98;;;8.15;;
64816;SDS011;69411;45.656;11.740;2024-03-08T11:18:58;15.10;;;8.27;;
64816;SDS011;69411;45.656;11.740;2024-03-08T11:21:32;14.98;;;8.45;;
64816;SDS011;69411;45.656;11.740;2024-03-08T11:24:11;18.88;;;10.30;;
64816;SDS011;69411;45.656;11.740;2024-03-08T11:26:39;16.42;;;8.70;;
64816;SDS011;69411;45.656;11.740;2024-03-08T11:34:40;16.13;;;9.05;;
64816;SDS011;69411;45.656;11.740;2024-03-08T11:37:14;16.60;;;9.23;;
64816;SDS011;69411;45.656;11.740;2024-03-08T11:40:00;15.15;;;8.85;;
64816;SDS011;69411;45.656;11.740;2024-03-08T11:42:29;14.70;;;8.35;;
64816;SDS011;69411;45.656;11.740;2024-03-08T11:44:56;15.60;;;8.50;;
64816;SDS011;69411;45.656;11.740;2024-03-08T11:47:23;16.50;;;8.98;;
64816;SDS011;69411;45.656;11.740;2024-03-08T11:49:50;15.48;;;9.02;;
64816;SDS011;69411;45.656;11.740;2024-03-08T11:52:18;15.60;;;8.93;;
64816;SDS011;69411;45.656;11.740;2024-03-08T11:54:53;17.92;;;9.45;;
64816;SDS011;69411;45.656;11.740;2024-03-08T11:57:21;16.35;;;9.40;;
64816;SDS011;69411;45.656;11.740;2024-03-08T11:59:51;16.30;;;9.15;;
64816;SDS011;69411;45.656;11.740;2024-03-08T12:02:18;17.73;;;10.38;;
64816;SDS011;69411;45.656;11.740;2024-03-08T12:04:44;16.45;;;9.27;;
64816;SDS011;69411;45.656;11.740;2024-03-08T12:07:13;17.20;;;9.50;;
64816;SDS011;69411;45.656;11.740;2024-03-08T12:09:44;14.85;;;9.25;;
64816;SDS011;69411;45.656;11.740;2024-03-08T12:12:30;19.67;;;9.18;;
64816;SDS011;69411;45.656;11.740;2024-03-08T12:14:57;18.00;;;10.20;;
64816;SDS011;69411;45.656;11.740;2024-03-08T12:17:23;17.02;;;9.23;;
64816;SDS011;69411;45.656;11.740;2024-03-08T12:19:49;20.73;;;10.30;;
64816;SDS011;69411;45.656;11.740;2024-03-08T12:22:15;17.90;;;9.65;;
64816;SDS011;69411;45.656;11.740;2024-03-08T12:24:41;17.38;;;9.40;;
64816;SDS011;69411;45.656;11.740;2024-03-08T12:27:19;16.70;;;9.20;;
64816;SDS011;69411;45.656;11.740;2024-03-08T12:29:45;15.10;;;8.63;;
64816;SDS011;69411;45.656;11.740;2024-03-08T12:32:12;17.42;;;9.27;;
64816;SDS011;69411;45.656;11.740;2024-03-08T12:34:38;15.65;;;9.10;;
64816;SDS011;69411;45.656;11.740;2024-03-08T12:37:05;16.40;;;9.63;;
64816;SDS011;69411;45.656;11.740;2024-03-08T12:39:32;18.35;;;9.70;;
64816;SDS011;69411;45.656;11.740;2024-03-08T12:41:58;19.83;;;11.02;;
64816;SDS011;69411;45.656;11.740;2024-03-08T12:44:25;17.65;;;9.52;;
64816;SDS011;69411;45.656;11.740;2024-03-08T12:46:51;17.60;;;9.57;;
64816;SDS011;69411;45.656;11.740;2024-03-08T12:49:18;14.68;;;8.77;;
64816;SDS011;69411;45.656;11.740;2024-03-08T12:51:47;16.35;;;9.35;;
64816;SDS011;69411;45.656;11.740;2024-03-08T12:54:13;17.63;;;9.55;;
64816;SDS011;69411;45.656;11.740;2024-03-08T12:56:40;17.77;;;9.40;;
64816;SDS011;69411;45.656;11.740;2024-03-08T12:59:08;16.02;;;8.93;;
64816;SDS011;69411;45.656;11.740;2024-03-08T13:01:35;17.73;;;9.40;;
64816;SDS011;69411;45.656;11.740;2024-03-08T13:04:05;15.73;;;8.93;;
64816;SDS011;69411;45.656;11.740;2024-03-08T13:06:36;15.25;;;8.70;;
64816;SDS011;69411;45.656;11.740;2024-03-08T13:09:02;15.57;;;8.65;;
64816;SDS011;69411;45.656;11.740;2024-03-08T13:11:31;15.65;;;8.35;;
64816;SDS011;69411;45.656;11.740;2024-03-08T13:14:02;14.57;;;8.60;;
64816;SDS011;69411;45.656;11.740;2024-03-08T13:16:30;14.75;;;7.88;;
64816;SDS011;69411;45.656;11.740;2024-03-08T13:18:57;17.38;;;9.32;;
64816;SDS011;69411;45.656;11.740;2024-03-08T13:21:22;16.75;;;9.18;;
64816;SDS011;69411;45.656;11.740;2024-03-08T13:27:41;13.98;;;8.00;;
64816;SDS011;69411;45.656;11.740;2024-03-08T13:30:14;14.70;;;7.90;;
64816;SDS011;69411;45.656;11.740;2024-03-08T13:32:43;14.60;;;7.75;;
64816;SDS011;69411;45.656;11.740;2024-03-08T13:35:10;15.45;;;8.25;;
64816;SDS011;69411;45.656;11.740;2024-03-08T13:37:39;15.25;;;8.00;;
64816;SDS011;69411;45.656;11.740;2024-03-08T13:40:06;13.88;;;7.57;;
64816;SDS011;69411;45.656;11.740;2024-03-08T13:42:42;14.82;;;7.97;;
64816;SDS011;69411;45.656;11.740;2024-03-08T13:45:08;16.40;;;8.50;;
64816;SDS011;69411;45.656;11.740;2024-03-08T13:47:39;14.30;;;7.85;;
64816;SDS011;69411;45.656;11.740;2024-03-08T13:50:06;14.95;;;8.27;;
64816;SDS011;69411;45.656;11.740;2024-03-08T13:52:37;14.02;;;7.32;;
64816;SDS011;69411;45.656;11.740;2024-03-08T13:55:04;13.90;;;7.68;;
64816;SDS011;69411;45.656;11.740;2024-03-08T13:57:31;14.63;;;8.10;;
64816;SDS011;69411;45.656;11.740;2024-03-08T13:59:57;13.00;;;7.20;;
64816;SDS011;69411;45.656;11.740;2024-03-08T14:02:24;14.77;;;8.80;;
64816;SDS011;69411;45.656;11.740;2024-03-08T14:04:54;15.38;;;7.90;;
64816;SDS011;69411;45.656;11.740;2024-03-08T14:07:20;14.57;;;7.55;;
64816;SDS011;69411;45.656;11.740;2024-03-08T14:09:48;15.90;;;8.50;;
64816;SDS011;69411;45.656;11.740;2024-03-08T14:12:18;14.18;;;8.07;;
64816;SDS011;69411;45.656;11.740;2024-03-08T14:14:44;18.73;;;9.57;;
64816;SDS011;69411;45.656;11.740;2024-03-08T14:20:04;18.40;;;8.20;;
64816;SDS011;69411;45.656;11.740;2024-03-08T14:22:53;14.90;;;7.95;;
64816;SDS011;69411;45.656;11.740;2024-03-08T14:25:20;13.65;;;7.75;;
64816;SDS011;69411;45.656;11.740;2024-03-08T14:27:49;15.05;;;8.25;;
64816;SDS011;69411;45.656;11.740;2024-03-08T14:30:18;13.63;;;7.70;;
64816;SDS011;69411;45.656;11.740;2024-03-08T14:33:05;15.55;;;8.05;;
64816;SDS011;69411;45.656;11.740;2024-03-08T14:35:37;15.10;;;8.38;;
64816;SDS011;69411;45.656;11.740;2024-03-08T14:40:29;14.93;;;8.32;;
64816;SDS011;69411;45.656;11.740;2024-03-08T14:42:55;15.15;;;7.95;;
64816;SDS011;69411;45.656;11.740;2024-03-08T14:45:22;13.98;;;7.65;;
64816;SDS011;69411;45.656;11.740;2024-03-08T14:47:49;15.23;;;7.88;;
64816;SDS011;69411;45.656;11.740;2024-03-08T14:50:18;16.63;;;8.63;;